sensor_id;sensor_type;location;lat;lon;timestamp;P1;durP1;ratioP1;P2;durP2;ratioP2
36351;SDS011;22382;44.768;17.206;2023-03-25T00:00:13;2.40;;;1.77;;
36351;SDS011;22382;44.768;17.206;2023-03-25T00:02:44;3.78;;;1.63;;
36351;SDS011;22382;44.768;17.206;2023-03-25T00:05:14;3.30;;;1.70;;
36351;SDS011;22382;44.768;17.206;2023-03-25T00:07:44;4.38;;;1.77;;
36351;SDS011;22382;44.768;17.206;2023-03-25T00:10:16;4.68;;;2.17;;
36351;SDS011;22382;44.768;17.206;2023-03-25T00:12:43;4.38;;;2.30;;
36351;SDS011;22382;44.768;17.206;2023-03-25T00:15:10;6.68;;;2.53;;
36351;SDS011;22382;44.768;17.206;2023-03-25T00:17:38;3.78;;;2.00;;
36351;SDS011;22382;44.768;17.206;2023-03-25T00:20:07;3.60;;;1.80;;
36351;SDS011;22382;44.768;17.206;2023-03-25T00:22:35;3.15;;;1.90;;
36351;SDS011;22382;44.768;17.206;2023-03-25T00:25:10;3.53;;;2.15;;
36351;SDS011;22382;44.768;17.206;2023-03-25T00:27:47;3.95;;;2.38;;
36351;SDS011;22382;44.768;17.206;2023-03-25T00:30:17;3.55;;;2.22;;
36351;SDS011;22382;44.768;17.206;2023-03-25T00:32:45;3.33;;;1.98;;
36351;SDS011;22382;44.768;17.206;2023-03-25T00:35:15;2.17;;;1.90;;
36351;SDS011;22382;44.768;17.206;2023-03-25T00:37:48;2.50;;;1.88;;
36351;SDS011;22382;44.768;17.206;2023-03-25T00:40:26;2.33;;;1.83;;
36351;SDS011;22382;44.768;17.206;2023-03-25T00:42:55;4.30;;;1.80;;
36351;SDS011;22382;44.768;17.206;2023-03-25T00:45:22;3.97;;;2.10;;
36351;SDS011;22382;44.768;17.206;2023-03-25T00:47:50;3.78;;;1.80;;
36351;SDS011;22382;44.768;17.206;2023-03-25T00:50:17;3.33;;;2.15;;
36351;SDS011;22382;44.768;17.206;2023-03-25T00:52:44;3.40;;;2.00;;
36351;SDS011;22382;44.768;17.206;2023-03-25T00:55:11;2.88;;;2.10;;
36351;SDS011;22382;44.768;17.206;2023-03-25T00:57:38;3.47;;;2.05;;
36351;SDS011;22382;44.768;17.206;2023-03-25T01:00:07;4.25;;;1.90;;
36351;SDS011;22382;44.768;17.206;2023-03-25T01:02:36;2.70;;;1.90;;
36351;SDS011;22382;44.768;17.206;2023-03-25T01:05:08;3.70;;;1.80;;
36351;SDS011;22382;44.768;17.206;2023-03-25T01:07:37;3.67;;;1.80;;
36351;SDS011;22382;44.768;17.206;2023-03-25T01:10:05;3.50;;;1.95;;
36351;SDS011;22382;44.768;17.206;2023-03-25T01:12:33;5.13;;;2.20;;
36351;SDS011;22382;44.768;17.206;2023-03-25T01:15:00;2.65;;;2.22;;
36351;SDS011;22382;44.768;17.206;2023-03-25T01:17:27;3.92;;;1.88;;
36351;SDS011;22382;44.768;17.206;2023-03-25T01:19:54;4.28;;;2.35;;
36351;SDS011;22382;44.768;17.206;2023-03-25T01:22:21;3.42;;;2.50;;
36351;SDS011;22382;44.768;17.206;2023-03-25T01:24:48;3.72;;;2.13;;
36351;SDS011;22382;44.768;17.206;2023-03-25T01:27:15;5.88;;;3.83;;
36351;SDS011;22382;44.768;17.206;2023-03-25T01:29:43;6.60;;;3.00;;
36351;SDS011;22382;44.768;17.206;2023-03-25T01:32:10;4.78;;;3.05;;
36351;SDS011;22382;44.768;17.206;2023-03-25T01:34:37;10.73;;;3.47;;
36351;SDS011;22382;44.768;17.206;2023-03-25T01:37:04;8.80;;;4.32;;
36351;SDS011;22382;44.768;17.206;2023-03-25T01:39:31;9.90;;;5.13;;
36351;SDS011;22382;44.768;17.206;2023-03-25T01:41:59;8.38;;;4.68;;
36351;SDS011;22382;44.768;17.206;2023-03-25T01:46:54;6.50;;;4.68;;
36351;SDS011;22382;44.768;17.206;2023-03-25T01:49:26;7.82;;;4.82;;
36351;SDS011;22382;44.768;17.206;2023-03-25T01:52:00;8.43;;;5.15;;
36351;SDS011;22382;44.768;17.206;2023-03-25T01:54:30;10.57;;;5.40;;
36351;SDS011;22382;44.768;17.206;2023-03-25T01:56:58;9.07;;;5.50;;
36351;SDS011;22382;44.768;17.206;2023-03-25T01:59:26;12.10;;;5.15;;
36351;SDS011;22382;44.768;17.206;2023-03-25T02:01:55;9.80;;;5.30;;
36351;SDS011;22382;44.768;17.206;2023-03-25T02:04:39;10.30;;;5.70;;
36351;SDS011;22382;44.768;17.206;2023-03-25T02:07:17;10.00;;;5.10;;
36351;SDS011;22382;44.768;17.206;2023-03-25T02:09:45;8.60;;;4.70;;
36351;SDS011;22382;44.768;17.206;2023-03-25T02:12:12;11.65;;;6.05;;
36351;SDS011;22382;44.768;17.206;2023-03-25T02:14:39;11.02;;;5.80;;
36351;SDS011;22382;44.768;17.206;2023-03-25T02:28:29;8.88;;;5.05;;
36351;SDS011;22382;44.768;17.206;2023-03-25T02:42:38;7.50;;;4.97;;
36351;SDS011;22382;44.768;17.206;2023-03-25T02:45:46;7.80;;;4.18;;
36351;SDS011;22382;44.768;17.206;2023-03-25T02:48:24;6.50;;;3.58;;
36351;SDS011;22382;44.768;17.206;2023-03-25T02:50:59;6.55;;;3.53;;
36351;SDS011;22382;44.768;17.206;2023-03-25T02:53:35;6.65;;;3.72;;
36351;SDS011;22382;44.768;17.206;2023-03-25T02:56:06;5.65;;;3.17;;
36351;SDS011;22382;44.768;17.206;2023-03-25T02:58:36;4.72;;;3.40;;
36351;SDS011;22382;44.768;17.206;2023-03-25T03:01:05;5.55;;;3.53;;
36351;SDS011;22382;44.768;17.206;2023-03-25T03:03:35;5.43;;;3.10;;
36351;SDS011;22382;44.768;17.206;2023-03-25T03:06:03;2.97;;;2.15;;
36351;SDS011;22382;44.768;17.206;2023-03-25T03:19:17;6.03;;;2.67;;
36351;SDS011;22382;44.768;17.206;2023-03-25T03:21:57;4.93;;;2.97;;
36351;SDS011;22382;44.768;17.206;2023-03-25T03:24:40;7.43;;;4.22;;
36351;SDS011;22382;44.768;17.206;2023-03-25T03:30:03;8.82;;;4.70;;
36351;SDS011;22382;44.768;17.206;2023-03-25T03:32:59;8.27;;;5.30;;
36351;SDS011;22382;44.768;17.206;2023-03-25T03:35:43;11.60;;;5.93;;
36351;SDS011;22382;44.768;17.206;2023-03-25T03:38:26;12.60;;;6.25;;
36351;SDS011;22382;44.768;17.206;2023-03-25T03:41:03;11.63;;;6.25;;
36351;SDS011;22382;44.768;17.206;2023-03-25T03:43:39;14.85;;;6.72;;
36351;SDS011;22382;44.768;17.206;2023-03-25T03:46:21;11.18;;;5.65;;
36351;SDS011;22382;44.768;17.206;2023-03-25T03:48:54;8.77;;;5.07;;
36351;SDS011;22382;44.768;17.206;2023-03-25T03:51:26;8.13;;;5.05;;
36351;SDS011;22382;44.768;17.206;2023-03-25T03:56:41;11.23;;;5.20;;
36351;SDS011;22382;44.768;17.206;2023-03-25T03:59:34;9.65;;;5.18;;
36351;SDS011;22382;44.768;17.206;2023-03-25T04:02:21;7.18;;;4.40;;
36351;SDS011;22382;44.768;17.206;2023-03-25T04:04:55;9.35;;;5.80;;
36351;SDS011;22382;44.768;17.206;2023-03-25T04:07:33;9.23;;;5.68;;
36351;SDS011;22382;44.768;17.206;2023-03-25T04:10:11;10.48;;;6.00;;
36351;SDS011;22382;44.768;17.206;2023-03-25T04:12:45;14.18;;;5.85;;
36351;SDS011;22382;44.768;17.206;2023-03-25T04:15:15;9.73;;;6.10;;
36351;SDS011;22382;44.768;17.206;2023-03-25T04:17:43;12.85;;;6.55;;
36351;SDS011;22382;44.768;17.206;2023-03-25T04:20:14;9.05;;;5.07;;
36351;SDS011;22382;44.768;17.206;2023-03-25T04:22:49;8.32;;;4.63;;
36351;SDS011;22382;44.768;17.206;2023-03-25T04:25:18;9.80;;;5.28;;
36351;SDS011;22382;44.768;17.206;2023-03-25T04:27:50;10.63;;;5.30;;
36351;SDS011;22382;44.768;17.206;2023-03-25T04:30:19;8.23;;;5.40;;
36351;SDS011;22382;44.768;17.206;2023-03-25T04:32:47;8.85;;;5.82;;
36351;SDS011;22382;44.768;17.206;2023-03-25T04:35:14;10.52;;;5.65;;
36351;SDS011;22382;44.768;17.206;2023-03-25T04:37:44;8.70;;;5.22;;
36351;SDS011;22382;44.768;17.206;2023-03-25T04:40:12;9.77;;;6.07;;
36351;SDS011;22382;44.768;17.206;2023-03-25T04:42:41;12.45;;;6.68;;
36351;SDS011;22382;44.768;17.206;2023-03-25T04:45:09;17.13;;;7.18;;
36351;SDS011;22382;44.768;17.206;2023-03-25T04:50:20;11.18;;;6.70;;
36351;SDS011;22382;44.768;17.206;2023-03-25T04:52:49;10.90;;;6.80;;
36351;SDS011;22382;44.768;17.206;2023-03-25T04:55:18;11.75;;;6.40;;
36351;SDS011;22382;44.768;17.206;2023-03-25T04:57:47;13.00;;;6.85;;
36351;SDS011;22382;44.768;17.206;2023-03-25T05:00:19;12.65;;;6.38;;
36351;SDS011;22382;44.768;17.206;2023-03-25T05:02:48;11.30;;;6.68;;
36351;SDS011;22382;44.768;17.206;2023-03-25T05:05:18;16.85;;;6.90;;
36351;SDS011;22382;44.768;17.206;2023-03-25T05:07:47;16.20;;;7.30;;
36351;SDS011;22382;44.768;17.206;2023-03-25T05:10:16;17.13;;;7.22;;
36351;SDS011;22382;44.768;17.206;2023-03-25T05:12:45;15.02;;;8.68;;
36351;SDS011;22382;44.768;17.206;2023-03-25T05:15:13;16.65;;;7.78;;
36351;SDS011;22382;44.768;17.206;2023-03-25T05:17:42;17.10;;;8.65;;
36351;SDS011;22382;44.768;17.206;2023-03-25T05:20:10;20.35;;;9.23;;
36351;SDS011;22382;44.768;17.206;2023-03-25T05:22:39;17.85;;;8.20;;
36351;SDS011;22382;44.768;17.206;2023-03-25T05:25:08;16.58;;;8.15;;
36351;SDS011;22382;44.768;17.206;2023-03-25T05:27:36;13.70;;;7.53;;
36351;SDS011;22382;44.768;17.206;2023-03-25T05:30:04;13.88;;;8.60;;
36351;SDS011;22382;44.768;17.206;2023-03-25T05:32:32;17.75;;;8.23;;
36351;SDS011;22382;44.768;17.206;2023-03-25T05:35:00;16.35;;;8.75;;
36351;SDS011;22382;44.768;17.206;2023-03-25T05:37:29;13.38;;;7.28;;
36351;SDS011;22382;44.768;17.206;2023-03-25T05:39:57;13.45;;;8.38;;
36351;SDS011;22382;44.768;17.206;2023-03-25T05:42:24;11.68;;;7.35;;
36351;SDS011;22382;44.768;17.206;2023-03-25T05:44:52;12.80;;;7.13;;
36351;SDS011;22382;44.768;17.206;2023-03-25T05:47:20;9.50;;;6.38;;
36351;SDS011;22382;44.768;17.206;2023-03-25T05:49:50;7.57;;;4.97;;
36351;SDS011;22382;44.768;17.206;2023-03-25T05:52:19;6.40;;;4.72;;
36351;SDS011;22382;44.768;17.206;2023-03-25T05:54:50;5.97;;;4.30;;
36351;SDS011;22382;44.768;17.206;2023-03-25T05:57:17;6.65;;;4.28;;
36351;SDS011;22382;44.768;17.206;2023-03-25T05:59:44;6.80;;;4.40;;
36351;SDS011;22382;44.768;17.206;2023-03-25T06:02:12;5.97;;;3.80;;
36351;SDS011;22382;44.768;17.206;2023-03-25T06:04:41;6.63;;;3.88;;
36351;SDS011;22382;44.768;17.206;2023-03-25T06:07:11;6.65;;;4.20;;
36351;SDS011;22382;44.768;17.206;2023-03-25T06:09:48;6.88;;;4.18;;
36351;SDS011;22382;44.768;17.206;2023-03-25T06:12:16;7.90;;;3.80;;
36351;SDS011;22382;44.768;17.206;2023-03-25T06:14:48;8.90;;;4.28;;
36351;SDS011;22382;44.768;17.206;2023-03-25T06:17:20;7.90;;;4.43;;
36351;SDS011;22382;44.768;17.206;2023-03-25T06:19:48;8.73;;;4.60;;
36351;SDS011;22382;44.768;17.206;2023-03-25T06:22:16;8.13;;;4.18;;
36351;SDS011;22382;44.768;17.206;2023-03-25T06:24:47;5.80;;;4.82;;
36351;SDS011;22382;44.768;17.206;2023-03-25T06:27:15;11.60;;;4.35;;
36351;SDS011;22382;44.768;17.206;2023-03-25T06:29:44;19.98;;;5.20;;
36351;SDS011;22382;44.768;17.206;2023-03-25T06:32:11;12.15;;;6.10;;
36351;SDS011;22382;44.768;17.206;2023-03-25T06:34:40;10.55;;;5.38;;
36351;SDS011;22382;44.768;17.206;2023-03-25T06:37:08;10.95;;;5.60;;
36351;SDS011;22382;44.768;17.206;2023-03-25T06:39:36;8.15;;;5.00;;
36351;SDS011;22382;44.768;17.206;2023-03-25T06:42:04;8.20;;;5.07;;
36351;SDS011;22382;44.768;17.206;2023-03-25T06:44:32;6.63;;;4.53;;
36351;SDS011;22382;44.768;17.206;2023-03-25T06:46:59;7.50;;;5.07;;
36351;SDS011;22382;44.768;17.206;2023-03-25T06:49:27;8.95;;;5.57;;
36351;SDS011;22382;44.768;17.206;2023-03-25T06:51:55;8.52;;;5.55;;
36351;SDS011;22382;44.768;17.206;2023-03-25T06:54:22;7.85;;;5.25;;
36351;SDS011;22382;44.768;17.206;2023-03-25T06:56:49;7.68;;;5.00;;
36351;SDS011;22382;44.768;17.206;2023-03-25T06:59:16;7.85;;;5.05;;
36351;SDS011;22382;44.768;17.206;2023-03-25T07:01:43;9.15;;;4.95;;
36351;SDS011;22382;44.768;17.206;2023-03-25T07:04:10;10.20;;;5.20;;
36351;SDS011;22382;44.768;17.206;2023-03-25T07:06:38;7.10;;;5.50;;
36351;SDS011;22382;44.768;17.206;2023-03-25T07:09:05;8.52;;;4.97;;
36351;SDS011;22382;44.768;17.206;2023-03-25T07:11:32;11.65;;;5.18;;
36351;SDS011;22382;44.768;17.206;2023-03-25T07:14:00;7.40;;;4.13;;
36351;SDS011;22382;44.768;17.206;2023-03-25T07:16:27;6.57;;;4.47;;
36351;SDS011;22382;44.768;17.206;2023-03-25T07:18:55;12.00;;;7.10;;
36351;SDS011;22382;44.768;17.206;2023-03-25T07:21:22;6.35;;;5.00;;
36351;SDS011;22382;44.768;17.206;2023-03-25T07:23:50;10.27;;;5.57;;
36351;SDS011;22382;44.768;17.206;2023-03-25T07:26:17;7.22;;;4.50;;
36351;SDS011;22382;44.768;17.206;2023-03-25T07:28:44;5.88;;;3.92;;
36351;SDS011;22382;44.768;17.206;2023-03-25T07:31:14;6.82;;;3.95;;
36351;SDS011;22382;44.768;17.206;2023-03-25T07:33:42;6.40;;;4.07;;
36351;SDS011;22382;44.768;17.206;2023-03-25T07:36:10;9.52;;;5.95;;
36351;SDS011;22382;44.768;17.206;2023-03-25T07:38:39;8.77;;;5.72;;
36351;SDS011;22382;44.768;17.206;2023-03-25T07:41:07;6.20;;;3.90;;
36351;SDS011;22382;44.768;17.206;2023-03-25T07:43:36;9.57;;;5.90;;
36351;SDS011;22382;44.768;17.206;2023-03-25T07:46:03;11.77;;;7.15;;
36351;SDS011;22382;44.768;17.206;2023-03-25T07:48:31;7.50;;;5.00;;
36351;SDS011;22382;44.768;17.206;2023-03-25T07:50:58;9.70;;;4.60;;
36351;SDS011;22382;44.768;17.206;2023-03-25T07:53:26;5.40;;;3.80;;
36351;SDS011;22382;44.768;17.206;2023-03-25T07:55:53;6.13;;;3.60;;
36351;SDS011;22382;44.768;17.206;2023-03-25T07:58:20;5.40;;;3.83;;
36351;SDS011;22382;44.768;17.206;2023-03-25T08:00:47;5.03;;;3.70;;
36351;SDS011;22382;44.768;17.206;2023-03-25T08:03:14;6.22;;;3.60;;
36351;SDS011;22382;44.768;17.206;2023-03-25T08:05:43;4.10;;;3.00;;
36351;SDS011;22382;44.768;17.206;2023-03-25T08:08:14;6.00;;;2.92;;
36351;SDS011;22382;44.768;17.206;2023-03-25T08:10:42;6.50;;;3.80;;
36351;SDS011;22382;44.768;17.206;2023-03-25T08:13:10;6.10;;;3.63;;
36351;SDS011;22382;44.768;17.206;2023-03-25T08:15:37;8.13;;;3.60;;
36351;SDS011;22382;44.768;17.206;2023-03-25T08:18:05;6.13;;;4.18;;
36351;SDS011;22382;44.768;17.206;2023-03-25T08:20:33;7.10;;;4.40;;
36351;SDS011;22382;44.768;17.206;2023-03-25T08:23:01;6.55;;;3.60;;
36351;SDS011;22382;44.768;17.206;2023-03-25T08:25:29;7.72;;;3.90;;
36351;SDS011;22382;44.768;17.206;2023-03-25T08:27:57;6.40;;;3.90;;
36351;SDS011;22382;44.768;17.206;2023-03-25T08:30:24;5.80;;;3.03;;
36351;SDS011;22382;44.768;17.206;2023-03-25T08:32:51;5.30;;;3.70;;
36351;SDS011;22382;44.768;17.206;2023-03-25T08:35:21;11.63;;;3.70;;
36351;SDS011;22382;44.768;17.206;2023-03-25T08:37:49;6.50;;;3.45;;
36351;SDS011;22382;44.768;17.206;2023-03-25T08:40:17;6.82;;;3.15;;
36351;SDS011;22382;44.768;17.206;2023-03-25T08:42:45;7.68;;;4.18;;
36351;SDS011;22382;44.768;17.206;2023-03-25T08:45:13;11.73;;;5.50;;
36351;SDS011;22382;44.768;17.206;2023-03-25T08:47:43;9.48;;;6.22;;
36351;SDS011;22382;44.768;17.206;2023-03-25T08:50:11;14.18;;;6.57;;
36351;SDS011;22382;44.768;17.206;2023-03-25T08:52:38;47.22;;;30.70;;
36351;SDS011;22382;44.768;17.206;2023-03-25T08:55:06;13.13;;;8.35;;
36351;SDS011;22382;44.768;17.206;2023-03-25T08:57:37;13.40;;;9.18;;
36351;SDS011;22382;44.768;17.206;2023-03-25T09:00:04;25.85;;;13.55;;
36351;SDS011;22382;44.768;17.206;2023-03-25T09:02:39;38.92;;;24.42;;
36351;SDS011;22382;44.768;17.206;2023-03-25T09:05:10;8.73;;;6.20;;
36351;SDS011;22382;44.768;17.206;2023-03-25T09:07:38;12.95;;;8.98;;
36351;SDS011;22382;44.768;17.206;2023-03-25T09:10:06;11.88;;;7.25;;
36351;SDS011;22382;44.768;17.206;2023-03-25T09:12:34;14.50;;;7.60;;
36351;SDS011;22382;44.768;17.206;2023-03-25T09:15:01;12.38;;;8.40;;
36351;SDS011;22382;44.768;17.206;2023-03-25T09:17:28;27.95;;;17.85;;
36351;SDS011;22382;44.768;17.206;2023-03-25T09:19:55;15.50;;;9.55;;
36351;SDS011;22382;44.768;17.206;2023-03-25T09:22:24;10.52;;;6.97;;
36351;SDS011;22382;44.768;17.206;2023-03-25T09:24:51;15.18;;;7.45;;
36351;SDS011;22382;44.768;17.206;2023-03-25T09:27:18;12.35;;;6.40;;
36351;SDS011;22382;44.768;17.206;2023-03-25T09:29:46;12.60;;;5.93;;
36351;SDS011;22382;44.768;17.206;2023-03-25T09:32:13;11.20;;;4.60;;
36351;SDS011;22382;44.768;17.206;2023-03-25T09:34:40;5.47;;;3.95;;
36351;SDS011;22382;44.768;17.206;2023-03-25T09:37:07;6.70;;;4.97;;
36351;SDS011;22382;44.768;17.206;2023-03-25T09:39:34;9.93;;;5.35;;
36351;SDS011;22382;44.768;17.206;2023-03-25T09:45:16;8.13;;;6.30;;
36351;SDS011;22382;44.768;17.206;2023-03-25T09:48:04;12.85;;;7.90;;
36351;SDS011;22382;44.768;17.206;2023-03-25T09:50:39;8.27;;;6.30;;
36351;SDS011;22382;44.768;17.206;2023-03-25T09:55:40;11.65;;;6.88;;
36351;SDS011;22382;44.768;17.206;2023-03-25T10:01:14;14.60;;;7.88;;
36351;SDS011;22382;44.768;17.206;2023-03-25T10:06:21;17.02;;;6.97;;
36351;SDS011;22382;44.768;17.206;2023-03-25T10:11:59;13.70;;;8.60;;
36351;SDS011;22382;44.768;17.206;2023-03-25T10:17:39;9.48;;;6.85;;
36351;SDS011;22382;44.768;17.206;2023-03-25T10:23:34;10.40;;;7.43;;
36351;SDS011;22382;44.768;17.206;2023-03-25T10:26:12;11.85;;;7.28;;
36351;SDS011;22382;44.768;17.206;2023-03-25T10:28:48;11.05;;;6.88;;
36351;SDS011;22382;44.768;17.206;2023-03-25T10:31:25;11.55;;;6.60;;
36351;SDS011;22382;44.768;17.206;2023-03-25T10:33:58;7.55;;;5.55;;
36351;SDS011;22382;44.768;17.206;2023-03-25T10:36:36;11.65;;;6.47;;
36351;SDS011;22382;44.768;17.206;2023-03-25T10:39:12;10.98;;;6.78;;
36351;SDS011;22382;44.768;17.206;2023-03-25T10:41:47;13.05;;;7.10;;
36351;SDS011;22382;44.768;17.206;2023-03-25T10:44:27;9.35;;;6.10;;
36351;SDS011;22382;44.768;17.206;2023-03-25T10:49:31;10.70;;;7.90;;
36351;SDS011;22382;44.768;17.206;2023-03-25T10:51:59;12.27;;;7.90;;
36351;SDS011;22382;44.768;17.206;2023-03-25T10:54:28;12.50;;;7.43;;
36351;SDS011;22382;44.768;17.206;2023-03-25T10:57:06;11.95;;;7.38;;
36351;SDS011;22382;44.768;17.206;2023-03-25T10:59:40;9.80;;;7.05;;
36351;SDS011;22382;44.768;17.206;2023-03-25T11:02:14;9.32;;;6.47;;
36351;SDS011;22382;44.768;17.206;2023-03-25T11:04:57;9.40;;;6.57;;
36351;SDS011;22382;44.768;17.206;2023-03-25T11:07:32;10.45;;;6.07;;
36351;SDS011;22382;44.768;17.206;2023-03-25T11:10:46;8.87;;;6.80;;
36351;SDS011;22382;44.768;17.206;2023-03-25T11:12:55;8.27;;;6.20;;
36351;SDS011;22382;44.768;17.206;2023-03-25T11:15:30;7.93;;;5.93;;
36351;SDS011;22382;44.768;17.206;2023-03-25T11:20:44;8.88;;;5.18;;
36351;SDS011;22382;44.768;17.206;2023-03-25T11:25:53;8.60;;;5.30;;
36351;SDS011;22382;44.768;17.206;2023-03-25T11:28:23;9.80;;;6.60;;
36351;SDS011;22382;44.768;17.206;2023-03-25T11:31:27;9.27;;;6.05;;
36351;SDS011;22382;44.768;17.206;2023-03-25T11:34:03;10.70;;;7.10;;
36351;SDS011;22382;44.768;17.206;2023-03-25T11:36:47;9.30;;;6.95;;
36351;SDS011;22382;44.768;17.206;2023-03-25T11:39:29;12.07;;;6.03;;
36351;SDS011;22382;44.768;17.206;2023-03-25T11:42:09;10.07;;;6.53;;
36351;SDS011;22382;44.768;17.206;2023-03-25T11:44:51;12.35;;;6.30;;
36351;SDS011;22382;44.768;17.206;2023-03-25T11:47:24;9.20;;;6.35;;
36351;SDS011;22382;44.768;17.206;2023-03-25T11:49:57;11.35;;;6.68;;
36351;SDS011;22382;44.768;17.206;2023-03-25T11:52:30;11.43;;;6.95;;
36351;SDS011;22382;44.768;17.206;2023-03-25T11:58:20;10.52;;;6.32;;
36351;SDS011;22382;44.768;17.206;2023-03-25T12:01:00;9.77;;;6.43;;
36351;SDS011;22382;44.768;17.206;2023-03-25T12:03:36;12.15;;;6.55;;
36351;SDS011;22382;44.768;17.206;2023-03-25T12:11:25;14.25;;;7.53;;
36351;SDS011;22382;44.768;17.206;2023-03-25T12:25:23;12.52;;;5.68;;
36351;SDS011;22382;44.768;17.206;2023-03-25T12:36:37;12.70;;;5.90;;
36351;SDS011;22382;44.768;17.206;2023-03-25T12:42:18;12.57;;;5.47;;
36351;SDS011;22382;44.768;17.206;2023-03-25T12:50:39;7.97;;;5.68;;
36351;SDS011;22382;44.768;17.206;2023-03-25T12:59:03;7.60;;;4.75;;
36351;SDS011;22382;44.768;17.206;2023-03-25T13:04:49;6.05;;;4.35;;
36351;SDS011;22382;44.768;17.206;2023-03-25T13:07:24;7.22;;;6.00;;
36351;SDS011;22382;44.768;17.206;2023-03-25T13:12:54;7.25;;;4.88;;
36351;SDS011;22382;44.768;17.206;2023-03-25T13:15:25;6.32;;;5.55;;
36351;SDS011;22382;44.768;17.206;2023-03-25T13:23:47;8.90;;;4.60;;
36351;SDS011;22382;44.768;17.206;2023-03-25T13:26:20;6.07;;;4.00;;
36351;SDS011;22382;44.768;17.206;2023-03-25T13:29:01;5.65;;;4.05;;
36351;SDS011;22382;44.768;17.206;2023-03-25T13:31:33;7.75;;;3.88;;
36351;SDS011;22382;44.768;17.206;2023-03-25T13:34:18;4.40;;;3.45;;
36351;SDS011;22382;44.768;17.206;2023-03-25T13:39:54;6.32;;;3.20;;
36351;SDS011;22382;44.768;17.206;2023-03-25T13:45:31;5.10;;;2.95;;
36351;SDS011;22382;44.768;17.206;2023-03-25T13:51:05;3.28;;;2.70;;
36351;SDS011;22382;44.768;17.206;2023-03-25T13:53:37;4.85;;;3.10;;
36351;SDS011;22382;44.768;17.206;2023-03-25T14:12:55;9.48;;;2.40;;
36351;SDS011;22382;44.768;17.206;2023-03-25T14:17:59;3.53;;;1.80;;
36351;SDS011;22382;44.768;17.206;2023-03-25T14:20:37;4.82;;;2.10;;
36351;SDS011;22382;44.768;17.206;2023-03-25T14:23:07;8.10;;;3.28;;
36351;SDS011;22382;44.768;17.206;2023-03-25T14:28:20;7.90;;;1.85;;
36351;SDS011;22382;44.768;17.206;2023-03-25T14:36:26;10.57;;;3.90;;
36351;SDS011;22382;44.768;17.206;2023-03-25T14:38:55;9.10;;;3.65;;
36351;SDS011;22382;44.768;17.206;2023-03-25T14:44:29;6.60;;;3.10;;
36351;SDS011;22382;44.768;17.206;2023-03-25T14:46:59;6.05;;;3.10;;
36351;SDS011;22382;44.768;17.206;2023-03-25T14:50:07;5.35;;;3.10;;
36351;SDS011;22382;44.768;17.206;2023-03-25T14:52:56;2.88;;;2.15;;
36351;SDS011;22382;44.768;17.206;2023-03-25T14:58:03;7.72;;;3.30;;
36351;SDS011;22382;44.768;17.206;2023-03-25T15:00:33;4.47;;;3.13;;
36351;SDS011;22382;44.768;17.206;2023-03-25T15:03:09;6.35;;;2.85;;
36351;SDS011;22382;44.768;17.206;2023-03-25T15:05:38;5.05;;;2.75;;
36351;SDS011;22382;44.768;17.206;2023-03-25T15:10:39;6.18;;;2.88;;
36351;SDS011;22382;44.768;17.206;2023-03-25T15:13:11;6.35;;;2.92;;
36351;SDS011;22382;44.768;17.206;2023-03-25T15:26:23;4.15;;;2.72;;
36351;SDS011;22382;44.768;17.206;2023-03-25T15:34:52;7.10;;;1.88;;
36351;SDS011;22382;44.768;17.206;2023-03-25T15:45:45;4.80;;;3.03;;
36351;SDS011;22382;44.768;17.206;2023-03-25T15:48:40;4.10;;;2.45;;
36351;SDS011;22382;44.768;17.206;2023-03-25T15:56:48;5.45;;;2.70;;
36351;SDS011;22382;44.768;17.206;2023-03-25T15:59:42;6.53;;;3.40;;
36351;SDS011;22382;44.768;17.206;2023-03-25T16:02:27;6.43;;;3.40;;
36351;SDS011;22382;44.768;17.206;2023-03-25T16:04:59;5.15;;;3.55;;
36351;SDS011;22382;44.768;17.206;2023-03-25T16:07:28;4.00;;;2.55;;
36351;SDS011;22382;44.768;17.206;2023-03-25T16:10:03;3.70;;;2.30;;
36351;SDS011;22382;44.768;17.206;2023-03-25T16:12:35;3.53;;;1.90;;
36351;SDS011;22382;44.768;17.206;2023-03-25T16:15:03;3.67;;;2.25;;
36351;SDS011;22382;44.768;17.206;2023-03-25T16:17:31;3.50;;;1.70;;
36351;SDS011;22382;44.768;17.206;2023-03-25T16:20:01;2.92;;;2.00;;
36351;SDS011;22382;44.768;17.206;2023-03-25T16:22:32;3.20;;;1.98;;
36351;SDS011;22382;44.768;17.206;2023-03-25T16:25:04;3.33;;;1.95;;
36351;SDS011;22382;44.768;17.206;2023-03-25T16:27:40;2.95;;;1.73;;
36351;SDS011;22382;44.768;17.206;2023-03-25T16:30:26;4.20;;;1.80;;
36351;SDS011;22382;44.768;17.206;2023-03-25T16:38:13;3.40;;;2.03;;
36351;SDS011;22382;44.768;17.206;2023-03-25T16:40:43;4.20;;;2.30;;
36351;SDS011;22382;44.768;17.206;2023-03-25T16:43:14;4.93;;;2.25;;
36351;SDS011;22382;44.768;17.206;2023-03-25T16:45:43;5.25;;;2.85;;
36351;SDS011;22382;44.768;17.206;2023-03-25T16:48:14;5.57;;;2.80;;
36351;SDS011;22382;44.768;17.206;2023-03-25T16:50:51;3.00;;;2.17;;
36351;SDS011;22382;44.768;17.206;2023-03-25T16:53:20;2.17;;;1.77;;
36351;SDS011;22382;44.768;17.206;2023-03-25T16:55:49;4.75;;;2.25;;
36351;SDS011;22382;44.768;17.206;2023-03-25T16:58:25;4.93;;;2.75;;
36351;SDS011;22382;44.768;17.206;2023-03-25T17:00:53;6.47;;;4.30;;
36351;SDS011;22382;44.768;17.206;2023-03-25T17:03:41;4.97;;;3.60;;
36351;SDS011;22382;44.768;17.206;2023-03-25T17:06:16;4.35;;;2.78;;
36351;SDS011;22382;44.768;17.206;2023-03-25T17:09:01;5.70;;;2.88;;
36351;SDS011;22382;44.768;17.206;2023-03-25T17:11:30;3.78;;;2.58;;
36351;SDS011;22382;44.768;17.206;2023-03-25T17:14:09;4.03;;;2.80;;
36351;SDS011;22382;44.768;17.206;2023-03-25T17:16:44;4.85;;;3.00;;
36351;SDS011;22382;44.768;17.206;2023-03-25T17:19:13;8.73;;;5.30;;
36351;SDS011;22382;44.768;17.206;2023-03-25T17:24:36;10.82;;;6.70;;
36351;SDS011;22382;44.768;17.206;2023-03-25T17:27:40;7.80;;;4.88;;
36351;SDS011;22382;44.768;17.206;2023-03-25T17:30:47;5.20;;;3.33;;
36351;SDS011;22382;44.768;17.206;2023-03-25T17:33:09;7.40;;;3.97;;
36351;SDS011;22382;44.768;17.206;2023-03-25T17:35:37;6.85;;;3.47;;
36351;SDS011;22382;44.768;17.206;2023-03-25T17:38:08;5.88;;;3.40;;
36351;SDS011;22382;44.768;17.206;2023-03-25T17:40:41;5.60;;;3.33;;
36351;SDS011;22382;44.768;17.206;2023-03-25T17:43:27;6.07;;;3.55;;
36351;SDS011;22382;44.768;17.206;2023-03-25T17:45:57;7.28;;;4.45;;
36351;SDS011;22382;44.768;17.206;2023-03-25T17:48:26;12.80;;;9.20;;
36351;SDS011;22382;44.768;17.206;2023-03-25T17:50:54;10.52;;;5.75;;
36351;SDS011;22382;44.768;17.206;2023-03-25T17:53:23;7.45;;;5.43;;
36351;SDS011;22382;44.768;17.206;2023-03-25T17:55:50;18.02;;;11.68;;
36351;SDS011;22382;44.768;17.206;2023-03-25T17:58:19;15.63;;;8.93;;
36351;SDS011;22382;44.768;17.206;2023-03-25T18:00:48;13.57;;;8.55;;
36351;SDS011;22382;44.768;17.206;2023-03-25T18:03:20;15.30;;;9.73;;
36351;SDS011;22382;44.768;17.206;2023-03-25T18:05:49;16.10;;;11.63;;
36351;SDS011;22382;44.768;17.206;2023-03-25T18:08:21;17.77;;;12.38;;
36351;SDS011;22382;44.768;17.206;2023-03-25T18:10:50;14.82;;;10.18;;
36351;SDS011;22382;44.768;17.206;2023-03-25T18:13:20;14.05;;;8.77;;
36351;SDS011;22382;44.768;17.206;2023-03-25T18:15:49;11.27;;;7.63;;
36351;SDS011;22382;44.768;17.206;2023-03-25T18:18:22;8.57;;;5.38;;
36351;SDS011;22382;44.768;17.206;2023-03-25T18:20:52;7.53;;;4.63;;
36351;SDS011;22382;44.768;17.206;2023-03-25T18:23:25;9.05;;;5.93;;
36351;SDS011;22382;44.768;17.206;2023-03-25T18:25:53;14.35;;;7.25;;
36351;SDS011;22382;44.768;17.206;2023-03-25T18:28:21;6.72;;;4.20;;